createdAt,value
2023-01-13T00:00:12.675Z,98.55
2023-01-13T00:02:14.201Z,99.13
2023-01-13T00:04:15.636Z,100.00
2023-01-13T00:06:22.596Z,99.79
2023-01-13T00:08:24.013Z,100.00
2023-01-13T00:10:25.463Z,99.97
2023-01-13T00:12:26.948Z,100.00
2023-01-13T00:14:30.112Z,100.00
2023-01-13T00:16:31.585Z,100.00
2023-01-13T00:18:34.340Z,100.00
2023-01-13T00:20:35.791Z,100.00
2023-01-13T00:22:37.211Z,100.00
2023-01-13T00:24:38.637Z,100.00
2023-01-13T00:26:40.200Z,100.00
2023-01-13T00:28:41.800Z,100.00
2023-01-13T00:30:43.225Z,100.00
2023-01-13T00:32:44.921Z,100.00
2023-01-13T00:34:46.408Z,100.00
2023-01-13T00:36:47.839Z,100.00
2023-01-13T00:38:49.417Z,100.00
2023-01-13T00:41:01.080Z,100.00
2023-01-13T00:43:20.857Z,100.00
2023-01-13T00:45:22.292Z,100.00
2023-01-13T00:47:23.711Z,100.00
2023-01-13T00:49:25.348Z,100.00
2023-01-13T00:51:27.539Z,100.00
2023-01-13T00:53:30.384Z,99.70
2023-01-13T00:55:32.935Z,99.35
2023-01-13T00:57:34.627Z,98.47
2023-01-13T00:59:36.052Z,96.99
2023-01-13T01:01:38.117Z,96.69
2023-01-13T01:03:40.287Z,95.53
2023-01-13T01:05:41.715Z,95.61
2023-01-13T01:07:43.123Z,95.50
2023-01-13T01:09:44.539Z,94.75
2023-01-13T01:11:46.029Z,94.28
2023-01-13T01:13:48.919Z,93.89
2023-01-13T01:15:50.394Z,93.18
2023-01-13T01:17:51.836Z,94.11
2023-01-13T01:19:53.317Z,93.51
2023-01-13T01:21:54.978Z,92.93
2023-01-13T01:24:00.128Z,92.69
2023-01-13T01:26:07.094Z,93.26
2023-01-13T01:28:08.556Z,92.48
2023-01-13T01:30:10.820Z,92.66
2023-01-13T01:32:12.255Z,92.11
2023-01-13T01:34:13.987Z,91.32
2023-01-13T01:36:18.471Z,91.37
2023-01-13T01:38:21.262Z,90.29
2023-01-13T01:40:22.716Z,89.33
2023-01-13T01:42:42.606Z,89.17
2023-01-13T01:44:56.389Z,88.02
2023-01-13T01:46:57.950Z,87.97
2023-01-13T01:49:08.996Z,88.64
2023-01-13T01:51:13.552Z,88.43
2023-01-13T01:53:19.427Z,88.91
2023-01-13T01:55:26.079Z,89.08
2023-01-13T01:57:42.557Z,88.83
2023-01-13T01:59:44.677Z,88.87
2023-01-13T02:01:46.366Z,87.61
2023-01-13T02:03:57.631Z,87.95
2023-01-13T02:05:59.163Z,87.31
2023-01-13T02:08:01.396Z,87.09
2023-01-13T02:10:07.865Z,87.07
2023-01-13T02:12:28.810Z,87.64
2023-01-13T02:14:31.712Z,88.38
2023-01-13T02:16:33.765Z,88.48
2023-01-13T02:18:50.082Z,88.71
2023-01-13T02:21:28.492Z,88.66
2023-01-13T02:23:57.578Z,89.06
2023-01-13T02:26:07.673Z,88.67
2023-01-13T02:28:33.790Z,89.10
2023-01-13T02:31:02.955Z,88.72
2023-01-13T02:33:48.259Z,88.93
2023-01-13T02:36:02.590Z,89.01
2023-01-13T02:38:05.337Z,89.56
2023-01-13T02:40:17.282Z,89.63
2023-01-13T02:42:51.738Z,89.82
2023-01-13T02:45:23.176Z,90.35
2023-01-13T02:47:30.628Z,90.35
2023-01-13T02:49:44.281Z,90.39
2023-01-13T02:51:48.156Z,90.45
2023-01-13T02:54:01.416Z,90.54
2023-01-13T02:56:06.091Z,90.28
2023-01-13T02:58:11.103Z,90.94
2023-01-13T03:00:14.593Z,90.27
2023-01-13T03:02:20.441Z,91.17
2023-01-13T03:04:53.177Z,90.67
2023-01-13T03:07:05.683Z,90.45
2023-01-13T03:09:15.474Z,90.04
2023-01-13T03:11:19.823Z,89.75
2023-01-13T03:13:40.326Z,89.89
2023-01-13T03:16:19.395Z,89.06
2023-01-13T03:18:23.633Z,88.12
2023-01-13T03:20:29.132Z,88.89
2023-01-13T03:22:55.343Z,88.20
2023-01-13T03:25:05.327Z,88.97
2023-01-13T03:27:10.860Z,88.84
2023-01-13T03:29:21.999Z,89.24
2023-01-13T03:31:30.360Z,89.30
2023-01-13T03:33:37.396Z,89.26
2023-01-13T03:35:43.844Z,88.93
2023-01-13T03:37:55.462Z,88.27
2023-01-13T03:40:14.888Z,87.53
2023-01-13T03:42:25.695Z,86.64
2023-01-13T03:44:33.867Z,87.00
2023-01-13T03:46:44.095Z,86.92
2023-01-13T03:48:46.999Z,87.58
2023-01-13T03:50:52.007Z,86.83
2023-01-13T03:52:58.162Z,86.78
2023-01-13T03:55:06.562Z,86.86
2023-01-13T03:57:12.139Z,87.03
2023-01-13T03:59:19.011Z,87.03
2023-01-13T04:01:29.220Z,86.61
2023-01-13T04:03:49.847Z,86.49
2023-01-13T04:05:58.184Z,86.86
2023-01-13T04:08:19.130Z,86.33
2023-01-13T04:10:29.899Z,86.31
2023-01-13T04:13:00.906Z,86.42
2023-01-13T04:15:02.516Z,86.37
2023-01-13T04:17:05.325Z,86.64
2023-01-13T04:19:06.824Z,86.70
2023-01-13T04:21:09.050Z,86.45
2023-01-13T04:23:11.365Z,87.44
2023-01-13T04:25:12.816Z,87.58
2023-01-13T04:27:14.295Z,87.26
2023-01-13T04:29:16.033Z,87.38
2023-01-13T04:31:17.973Z,87.56
2023-01-13T04:33:19.703Z,87.65
2023-01-13T04:35:21.167Z,87.45
2023-01-13T04:37:22.638Z,87.55
2023-01-13T04:39:24.111Z,87.45
2023-01-13T04:41:25.572Z,86.89
2023-01-13T04:43:27.044Z,86.63
2023-01-13T04:45:28.517Z,86.02
2023-01-13T04:47:29.958Z,85.85
2023-01-13T04:49:31.665Z,86.04
2023-01-13T04:51:33.147Z,85.73
2023-01-13T04:53:34.665Z,85.78
2023-01-13T04:55:36.160Z,85.38
2023-01-13T04:57:37.785Z,85.69
2023-01-13T04:59:41.115Z,85.82
2023-01-13T05:01:42.680Z,86.02
2023-01-13T05:03:44.215Z,85.49
2023-01-13T05:05:45.735Z,85.89
2023-01-13T05:07:47.232Z,86.42
2023-01-13T05:09:48.773Z,85.78
2023-01-13T05:12:08.497Z,86.04
2023-01-13T05:14:28.257Z,85.90
2023-01-13T05:16:50.088Z,86.30
2023-01-13T05:18:51.559Z,85.96
2023-01-13T05:20:53.001Z,85.46
2023-01-13T05:23:13.119Z,85.43
2023-01-13T05:25:27.994Z,85.32
2023-01-13T05:27:30.262Z,86.66
2023-01-13T05:29:31.729Z,86.28
2023-01-13T05:31:33.220Z,85.59
2023-01-13T05:33:36.048Z,85.94
2023-01-13T05:35:39.164Z,86.09
2023-01-13T05:37:40.654Z,85.65
2023-01-13T05:40:01.491Z,85.37
2023-01-13T05:42:21.567Z,85.52
2023-01-13T05:44:23.009Z,84.44
2023-01-13T05:46:24.490Z,85.03
2023-01-13T05:48:27.780Z,85.08
2023-01-13T05:50:29.222Z,85.20
2023-01-13T05:52:30.945Z,84.95
2023-01-13T05:54:37.040Z,85.07
2023-01-13T05:56:38.613Z,85.52
2023-01-13T05:58:40.278Z,85.55
2023-01-13T06:00:43.010Z,85.61
2023-01-13T06:02:44.569Z,85.88
2023-01-13T06:04:46.106Z,85.02
2023-01-13T06:06:48.825Z,85.21
2023-01-13T06:08:50.370Z,85.01
2023-01-13T06:10:54.938Z,85.06
2023-01-13T06:12:56.622Z,85.34
2023-01-13T06:14:58.189Z,84.96
2023-01-13T06:17:00.025Z,85.24
2023-01-13T06:19:01.594Z,85.29
2023-01-13T06:21:03.276Z,84.71
2023-01-13T06:23:08.635Z,85.00
2023-01-13T06:25:36.569Z,84.21
2023-01-13T06:27:38.409Z,84.60
2023-01-13T06:29:40.118Z,84.59
2023-01-13T06:31:41.660Z,84.48
2023-01-13T06:33:48.372Z,84.39
2023-01-13T06:35:55.991Z,83.73
2023-01-13T06:37:59.657Z,83.39
2023-01-13T06:40:04.079Z,83.39
2023-01-13T06:42:24.380Z,83.26
2023-01-13T06:44:25.856Z,82.94
2023-01-13T06:46:27.365Z,82.58
2023-01-13T06:48:35.465Z,83.17
2023-01-13T06:50:37.165Z,82.82
2023-01-13T06:52:38.650Z,82.56
2023-01-13T06:54:40.182Z,81.74
2023-01-13T06:56:41.655Z,81.61
2023-01-13T06:58:43.141Z,81.46
2023-01-13T07:00:44.950Z,81.74
2023-01-13T07:02:46.587Z,81.91
2023-01-13T07:04:48.801Z,82.05
2023-01-13T07:06:50.256Z,82.16
2023-01-13T07:08:51.763Z,82.47
2023-01-13T07:10:54.180Z,82.32
2023-01-13T07:13:13.983Z,82.32
2023-01-13T07:15:21.085Z,82.24
2023-01-13T07:17:25.353Z,82.36
2023-01-13T07:19:27.015Z,82.24
2023-01-13T07:21:28.514Z,82.72
2023-01-13T07:23:32.165Z,81.81
2023-01-13T07:25:33.633Z,82.16
2023-01-13T07:27:35.284Z,82.81
2023-01-13T07:29:37.547Z,83.26
2023-01-13T07:31:39.874Z,83.23
2023-01-13T07:33:41.371Z,83.44
2023-01-13T07:35:42.840Z,82.78
2023-01-13T07:37:44.358Z,82.84
2023-01-13T07:39:46.407Z,82.71
2023-01-13T07:42:06.331Z,82.98
2023-01-13T07:44:10.699Z,83.49
2023-01-13T07:46:12.221Z,83.15
2023-01-13T07:48:13.770Z,83.09
2023-01-13T07:50:15.250Z,82.80
2023-01-13T07:52:16.715Z,82.88
2023-01-13T07:54:19.316Z,83.29
2023-01-13T07:56:20.997Z,82.96
2023-01-13T07:58:22.694Z,82.70
2023-01-13T08:00:24.344Z,82.98
2023-01-13T08:02:25.941Z,82.83
2023-01-13T08:04:27.547Z,82.74
2023-01-13T08:06:29.084Z,82.15
2023-01-13T08:08:30.677Z,82.58
2023-01-13T08:10:32.195Z,82.25
2023-01-13T08:12:56.957Z,81.28
2023-01-13T08:14:58.607Z,81.13
2023-01-13T08:17:00.097Z,81.04
2023-01-13T08:19:01.606Z,81.41
2023-01-13T08:21:06.329Z,81.21
2023-01-13T08:23:07.886Z,80.23
2023-01-13T08:25:09.712Z,79.58
2023-01-13T08:27:11.165Z,80.10
2023-01-13T08:29:14.892Z,79.27
2023-01-13T08:31:17.271Z,79.66
2023-01-13T08:33:18.881Z,79.59
2023-01-13T08:35:21.317Z,79.58
2023-01-13T08:37:23.116Z,80.20
2023-01-13T08:39:25.543Z,79.39
2023-01-13T08:41:45.636Z,79.16
2023-01-13T08:43:47.092Z,79.34
2023-01-13T08:46:00.115Z,79.16
2023-01-13T08:48:02.213Z,79.17
2023-01-13T08:50:04.456Z,79.90
2023-01-13T08:52:05.989Z,79.31
2023-01-13T08:54:07.475Z,78.63
2023-01-13T08:56:11.736Z,79.02
2023-01-13T08:58:16.468Z,78.42
2023-01-13T09:00:18.479Z,78.23
2023-01-13T09:02:22.502Z,77.96
2023-01-13T09:04:27.803Z,78.17
2023-01-13T09:06:29.307Z,78.24
2023-01-13T09:08:30.841Z,78.40
2023-01-13T09:10:32.490Z,77.98
2023-01-13T09:12:52.789Z,78.30
2023-01-13T09:14:54.234Z,78.17
2023-01-13T09:16:56.263Z,77.99
2023-01-13T09:18:57.698Z,78.21
2023-01-13T09:20:59.255Z,77.95
2023-01-13T09:23:00.942Z,77.46
2023-01-13T09:25:02.413Z,77.65
2023-01-13T09:27:03.896Z,77.75
2023-01-13T09:29:05.839Z,76.94
2023-01-13T09:31:07.370Z,78.08
2023-01-13T09:33:27.230Z,78.15
2023-01-13T09:35:28.695Z,77.87
2023-01-13T09:37:31.477Z,78.14
2023-01-13T09:39:34.008Z,77.80
2023-01-13T09:42:00.128Z,77.89
2023-01-13T09:44:02.890Z,78.39
2023-01-13T09:46:47.398Z,78.27
2023-01-13T09:48:54.643Z,77.61
2023-01-13T09:51:24.425Z,77.22
2023-01-13T09:53:30.448Z,76.97
2023-01-13T09:55:38.984Z,76.39
2023-01-13T09:57:40.883Z,76.85
2023-01-13T09:59:43.298Z,76.63
2023-01-13T10:02:02.955Z,77.16
2023-01-13T10:04:12.728Z,77.29
2023-01-13T10:06:17.241Z,78.09
2023-01-13T10:08:32.648Z,77.26
2023-01-13T10:10:41.777Z,76.58
2023-01-13T10:13:03.959Z,77.18
2023-01-13T10:15:06.295Z,77.06
2023-01-13T10:17:26.310Z,77.62
2023-01-13T10:19:44.400Z,77.58
2023-01-13T10:22:01.752Z,77.83
2023-01-13T10:24:12.280Z,78.66
2023-01-13T10:26:39.604Z,80.42
2023-01-13T10:28:41.065Z,81.86
2023-01-13T10:30:45.802Z,83.83
2023-01-13T10:33:27.678Z,85.55
2023-01-13T10:35:59.372Z,88.28
2023-01-13T10:38:00.825Z,90.28
2023-01-13T10:40:03.212Z,91.07
2023-01-13T10:42:06.797Z,91.98
2023-01-13T10:44:18.861Z,93.74
2023-01-13T10:46:20.664Z,94.26
2023-01-13T10:48:22.236Z,94.45
2023-01-13T10:50:28.490Z,93.49
2023-01-13T10:52:33.207Z,93.40
2023-01-13T10:54:36.531Z,92.52
2023-01-13T10:56:39.812Z,92.67
2023-01-13T10:58:41.323Z,92.36
2023-01-13T11:00:42.895Z,91.81
2023-01-13T11:02:44.380Z,91.47
2023-01-13T11:05:02.927Z,91.58
2023-01-13T11:07:16.377Z,91.33
2023-01-13T11:09:22.632Z,90.13
2023-01-13T11:11:47.387Z,89.89
2023-01-13T11:14:12.102Z,90.28
2023-01-13T11:16:16.616Z,88.82
2023-01-13T11:18:36.879Z,89.08
2023-01-13T11:20:42.600Z,87.43
2023-01-13T11:22:55.639Z,87.33
2023-01-13T11:25:02.779Z,87.71
2023-01-13T11:27:10.021Z,86.69
2023-01-13T11:29:18.341Z,85.95
2023-01-13T11:31:30.151Z,85.54
2023-01-13T11:33:56.919Z,85.72
2023-01-13T11:36:08.588Z,84.54
2023-01-13T11:38:28.921Z,83.15
2023-01-13T11:40:41.500Z,83.56
2023-01-13T11:42:54.153Z,83.49
2023-01-13T11:45:21.917Z,82.69
2023-01-13T11:47:25.942Z,83.25
2023-01-13T11:49:30.805Z,83.26
2023-01-13T11:51:51.034Z,82.95
2023-01-13T11:54:10.823Z,82.92
2023-01-13T11:56:30.996Z,82.56
2023-01-13T11:58:50.952Z,82.93
2023-01-13T12:01:11.239Z,83.54
2023-01-13T12:03:24.875Z,82.48
2023-01-13T12:05:39.569Z,83.15
2023-01-13T12:07:40.989Z,83.07
2023-01-13T12:09:44.519Z,83.62
2023-01-13T12:12:15.519Z,83.76
2023-01-13T12:14:36.434Z,85.65
2023-01-13T12:16:49.003Z,86.17
2023-01-13T12:19:08.973Z,86.15
2023-01-13T12:21:20.795Z,86.13
2023-01-13T12:23:57.483Z,86.61
2023-01-13T12:26:06.257Z,86.12
2023-01-13T12:28:13.622Z,85.28
2023-01-13T12:30:27.072Z,85.90
2023-01-13T12:32:36.444Z,85.77
2023-01-13T12:34:57.517Z,86.38
2023-01-13T12:37:14.144Z,85.70
2023-01-13T12:39:30.093Z,85.92
2023-01-13T12:43:04.224Z,86.84
2023-01-13T12:45:11.310Z,86.89
2023-01-13T12:47:33.872Z,86.43
2023-01-13T12:49:36.257Z,86.08
2023-01-13T12:51:57.669Z,85.96
2023-01-13T12:54:01.431Z,85.62
2023-01-13T12:56:34.881Z,85.04
2023-01-13T12:58:37.885Z,85.53
2023-01-13T13:00:39.373Z,84.99
2023-01-13T13:02:43.357Z,84.38
2023-01-13T13:04:49.547Z,84.77
2023-01-13T13:07:12.673Z,84.25
2023-01-13T13:09:31.929Z,83.69
2023-01-13T13:11:58.100Z,84.13
2023-01-13T13:14:01.587Z,83.72
2023-01-13T13:16:26.175Z,84.04
2023-01-13T13:18:28.795Z,84.13
2023-01-13T13:21:08.945Z,83.78
2023-01-13T13:23:39.292Z,84.09
2023-01-13T13:26:04.802Z,83.88
2023-01-13T13:28:17.348Z,84.66
2023-01-13T13:30:18.744Z,84.92
2023-01-13T13:32:54.301Z,84.82
2023-01-13T13:35:18.792Z,84.90
2023-01-13T13:37:59.667Z,85.15
2023-01-13T13:40:27.491Z,85.91
2023-01-13T13:42:56.551Z,86.67
2023-01-13T13:45:19.284Z,86.62
2023-01-13T13:47:20.774Z,87.40
2023-01-13T13:49:46.698Z,86.99
2023-01-13T13:52:03.445Z,86.93
2023-01-13T13:54:05.223Z,85.84
2023-01-13T13:56:16.767Z,84.86
2023-01-13T13:58:18.309Z,84.82
2023-01-13T14:00:29.523Z,84.80
2023-01-13T14:02:36.910Z,84.95
2023-01-13T14:04:39.110Z,83.64
2023-01-13T14:06:50.918Z,83.22
2023-01-13T14:08:52.400Z,83.63
2023-01-13T14:10:54.001Z,82.43
2023-01-13T14:12:55.525Z,83.29
2023-01-13T14:14:59.868Z,83.25
2023-01-13T14:17:01.349Z,83.21
2023-01-13T14:19:02.990Z,83.65
2023-01-13T14:21:26.651Z,83.66
2023-01-13T14:23:31.517Z,82.65
2023-01-13T14:25:47.301Z,83.02
2023-01-13T14:27:49.197Z,82.85
2023-01-13T14:29:56.005Z,82.74
2023-01-13T14:31:57.658Z,81.51
2023-01-13T14:34:02.815Z,81.60
2023-01-13T14:36:25.485Z,81.22
2023-01-13T14:38:26.957Z,81.12
2023-01-13T14:40:38.131Z,80.51
2023-01-13T14:42:39.677Z,81.20
2023-01-13T14:44:46.848Z,80.98
2023-01-13T14:46:48.581Z,81.50
2023-01-13T14:48:59.310Z,81.19
2023-01-13T14:51:04.893Z,81.80
2023-01-13T14:53:27.222Z,81.76
2023-01-13T14:55:38.458Z,80.91
2023-01-13T14:57:41.731Z,80.31
2023-01-13T14:59:51.492Z,79.46
2023-01-13T15:01:54.768Z,80.10
2023-01-13T15:04:17.176Z,79.27
2023-01-13T15:06:24.328Z,80.56
2023-01-13T15:08:29.645Z,80.69
2023-01-13T15:10:38.389Z,80.64
2023-01-13T15:12:40.710Z,81.44
2023-01-13T15:14:42.216Z,81.41
2023-01-13T15:16:43.660Z,82.00
2023-01-13T15:18:46.689Z,81.97
2023-01-13T15:20:48.306Z,82.17
2023-01-13T15:22:50.842Z,82.27
2023-01-13T15:24:52.535Z,82.59
2023-01-13T15:26:53.968Z,82.70
2023-01-13T15:28:58.299Z,82.62
2023-01-13T15:31:01.683Z,82.11
2023-01-13T15:33:03.437Z,82.50
2023-01-13T15:35:05.369Z,82.15
2023-01-13T15:37:09.180Z,81.67
2023-01-13T15:39:13.021Z,82.45
2023-01-13T15:41:14.472Z,82.08
2023-01-13T15:43:41.819Z,82.74
2023-01-13T15:46:02.871Z,82.24
2023-01-13T15:48:04.728Z,82.05
2023-01-13T15:50:06.511Z,81.82
2023-01-13T15:52:33.996Z,82.11
2023-01-13T15:54:35.456Z,81.98
2023-01-13T15:56:37.187Z,82.48
2023-01-13T15:58:39.133Z,82.15
2023-01-13T16:00:41.673Z,82.47
2023-01-13T16:02:44.470Z,82.02
2023-01-13T16:04:46.041Z,82.42
2023-01-13T16:06:47.842Z,82.64
2023-01-13T16:08:49.380Z,82.18
2023-01-13T16:10:50.854Z,82.72
2023-01-13T16:12:55.722Z,82.77
2023-01-13T16:14:57.301Z,82.66
2023-01-13T16:16:59.002Z,83.19
2023-01-13T16:19:00.491Z,82.57
2023-01-13T16:21:01.963Z,82.28
2023-01-13T16:23:03.706Z,82.65
2023-01-13T16:25:05.506Z,83.11
2023-01-13T16:27:15.459Z,83.39
2023-01-13T16:29:17.024Z,83.02
2023-01-13T16:31:23.917Z,82.75
2023-01-13T16:33:25.398Z,82.68
2023-01-13T16:35:28.659Z,82.84
2023-01-13T16:37:30.196Z,82.75
2023-01-13T16:39:31.745Z,83.34
2023-01-13T16:41:33.582Z,83.80
2023-01-13T16:43:35.392Z,84.58
2023-01-13T16:45:36.972Z,84.28
2023-01-13T16:47:39.766Z,85.26
2023-01-13T16:49:41.281Z,85.69
2023-01-13T16:51:42.995Z,86.26
2023-01-13T16:53:44.566Z,86.40
2023-01-13T16:55:46.054Z,87.30
2023-01-13T16:57:47.933Z,87.47
2023-01-13T16:59:49.531Z,88.37
2023-01-13T17:01:51.938Z,88.06
2023-01-13T17:03:54.649Z,87.84
2023-01-13T17:05:56.129Z,87.36
2023-01-13T17:07:57.661Z,87.47
2023-01-13T17:09:59.184Z,87.17
2023-01-13T17:12:00.744Z,87.13
2023-01-13T17:14:18.108Z,87.38
2023-01-13T17:16:24.291Z,87.39
2023-01-13T17:18:25.803Z,87.76
2023-01-13T17:20:27.525Z,87.01
2023-01-13T17:22:30.756Z,86.45
2023-01-13T17:24:35.076Z,86.58
2023-01-13T17:26:47.094Z,85.77
2023-01-13T17:28:48.609Z,85.41
2023-01-13T17:30:50.059Z,85.05
2023-01-13T17:32:51.522Z,85.39
2023-01-13T17:34:53.942Z,86.00
2023-01-13T17:36:55.442Z,87.01
2023-01-13T17:38:57.035Z,87.19
2023-01-13T17:41:05.409Z,87.10
2023-01-13T17:43:06.878Z,86.81
2023-01-13T17:45:11.386Z,87.62
2023-01-13T17:47:12.881Z,87.35
2023-01-13T17:49:16.311Z,86.97
2023-01-13T17:51:18.778Z,86.38
2023-01-13T17:53:20.536Z,86.44
2023-01-13T17:55:22.059Z,86.41
2023-01-13T17:57:23.537Z,86.78
2023-01-13T17:59:25.091Z,86.66
2023-01-13T18:01:30.747Z,87.57
2023-01-13T18:03:32.285Z,88.43
2023-01-13T18:05:35.052Z,90.02
2023-01-13T18:07:36.511Z,90.09
2023-01-13T18:09:38.146Z,90.34
2023-01-13T18:11:39.620Z,91.39
2023-01-13T18:13:43.109Z,91.69
2023-01-13T18:15:44.604Z,92.08
2023-01-13T18:17:47.355Z,93.18
2023-01-13T18:20:07.432Z,93.24
2023-01-13T18:22:31.341Z,93.22
2023-01-13T18:24:51.766Z,93.79
2023-01-13T18:27:11.585Z,93.99
2023-01-13T18:29:13.062Z,94.66
2023-01-13T18:31:14.565Z,94.99
2023-01-13T18:33:16.178Z,95.75
2023-01-13T18:35:17.813Z,95.53
2023-01-13T18:37:19.377Z,94.87
2023-01-13T18:39:20.879Z,94.71
2023-01-13T18:41:40.644Z,94.73
2023-01-13T18:43:42.140Z,95.13
2023-01-13T18:45:44.853Z,95.64
2023-01-13T18:47:46.387Z,96.28
2023-01-13T18:49:47.977Z,96.50
2023-01-13T18:51:49.976Z,97.27
2023-01-13T18:53:51.506Z,97.40
2023-01-13T18:55:52.948Z,97.21
2023-01-13T18:57:55.512Z,96.88
2023-01-13T18:59:57.633Z,96.99
2023-01-13T19:01:59.287Z,97.01
2023-01-13T19:04:02.934Z,96.90
2023-01-13T19:06:06.105Z,97.06
2023-01-13T19:08:07.655Z,97.34
2023-01-13T19:10:10.202Z,97.41
2023-01-13T19:12:14.558Z,97.83
2023-01-13T19:14:33.980Z,98.25
2023-01-13T19:16:35.501Z,98.04
2023-01-13T19:18:36.979Z,98.17
2023-01-13T19:20:38.463Z,98.03
2023-01-13T19:22:40.024Z,97.53
2023-01-13T19:24:44.357Z,97.43
2023-01-13T19:26:48.924Z,97.72
2023-01-13T19:28:50.648Z,97.07
2023-01-13T19:30:52.667Z,96.85
2023-01-13T19:32:54.171Z,96.83
2023-01-13T19:34:59.175Z,96.64
2023-01-13T19:37:00.977Z,97.27
2023-01-13T19:39:02.514Z,97.31
2023-01-13T19:41:11.108Z,96.92
2023-01-13T19:43:31.271Z,96.95
2023-01-13T19:45:35.151Z,96.85
2023-01-13T19:47:38.538Z,96.85
2023-01-13T19:49:40.094Z,96.81
2023-01-13T19:51:41.560Z,96.57
2023-01-13T19:53:43.022Z,96.13
2023-01-13T19:55:47.681Z,96.04
2023-01-13T19:57:49.243Z,95.58
2023-01-13T19:59:50.774Z,95.04
2023-01-13T20:01:52.539Z,94.75
2023-01-13T20:03:55.508Z,94.81
2023-01-13T20:06:07.629Z,94.04
2023-01-13T20:08:10.456Z,93.34
2023-01-13T20:10:13.339Z,92.80
2023-01-13T20:12:17.660Z,92.18
2023-01-13T20:14:20.014Z,92.05
2023-01-13T20:16:21.513Z,91.65
2023-01-13T20:18:22.999Z,91.03
2023-01-13T20:20:26.845Z,90.63
2023-01-13T20:22:28.311Z,90.53
2023-01-13T20:24:29.830Z,89.93
2023-01-13T20:26:32.016Z,90.00
2023-01-13T20:28:37.026Z,89.92
2023-01-13T20:30:40.012Z,90.19
2023-01-13T20:32:42.714Z,90.55
2023-01-13T20:34:44.180Z,90.28
2023-01-13T20:36:46.980Z,90.66
2023-01-13T20:38:48.425Z,90.20
2023-01-13T20:40:59.084Z,90.78
2023-01-13T20:43:00.707Z,90.57
2023-01-13T20:45:02.157Z,90.58
2023-01-13T20:47:04.182Z,90.21
2023-01-13T20:49:05.892Z,90.39
2023-01-13T20:51:07.388Z,90.11
2023-01-13T20:53:08.913Z,89.85
2023-01-13T20:55:11.247Z,89.50
2023-01-13T20:57:13.288Z,89.44
2023-01-13T20:59:15.325Z,88.98
2023-01-13T21:01:16.875Z,89.05
2023-01-13T21:03:18.554Z,89.26
2023-01-13T21:05:20.031Z,88.93
2023-01-13T21:07:21.489Z,89.14
2023-01-13T21:09:24.272Z,88.97
2023-01-13T21:11:46.779Z,88.28
2023-01-13T21:14:06.647Z,88.75
2023-01-13T21:16:10.073Z,88.67
2023-01-13T21:18:29.971Z,88.65
2023-01-13T21:20:33.604Z,89.03
2023-01-13T21:22:35.939Z,89.07
2023-01-13T21:24:37.383Z,88.97
2023-01-13T21:26:40.152Z,88.96
2023-01-13T21:28:41.615Z,88.92
2023-01-13T21:30:44.483Z,89.23
2023-01-13T21:32:46.028Z,89.31
2023-01-13T21:34:47.570Z,89.53
2023-01-13T21:36:49.029Z,89.65
2023-01-13T21:38:55.066Z,89.89
2023-01-13T21:41:02.131Z,89.33
2023-01-13T21:43:21.906Z,90.16
2023-01-13T21:45:42.015Z,91.02
2023-01-13T21:47:49.685Z,92.09
2023-01-13T21:49:51.137Z,92.43
2023-01-13T21:51:52.586Z,92.70
2023-01-13T21:53:55.133Z,93.99
2023-01-13T21:55:56.601Z,94.78
2023-01-13T21:58:07.116Z,95.43
2023-01-13T22:00:09.063Z,95.96
2023-01-13T22:02:28.864Z,96.93
2023-01-13T22:04:30.385Z,96.89
2023-01-13T22:06:31.957Z,97.70
2023-01-13T22:08:35.668Z,97.48
2023-01-13T22:10:37.249Z,97.67
2023-01-13T22:12:39.394Z,97.43
2023-01-13T22:14:41.157Z,97.88
2023-01-13T22:16:49.053Z,97.57
2023-01-13T22:18:50.807Z,98.72
2023-01-13T22:20:52.301Z,98.69
2023-01-13T22:22:53.820Z,98.39
2023-01-13T22:24:55.442Z,98.48
2023-01-13T22:26:56.886Z,98.16
2023-01-13T22:28:58.592Z,98.21
2023-01-13T22:31:07.760Z,98.24
2023-01-13T22:33:09.583Z,98.31
2023-01-13T22:35:12.927Z,97.93
2023-01-13T22:37:15.188Z,97.89
2023-01-13T22:39:16.628Z,97.87
2023-01-13T22:41:18.527Z,97.50
2023-01-13T22:43:19.978Z,97.97
2023-01-13T22:45:21.436Z,97.85
2023-01-13T22:47:22.962Z,98.12
2023-01-13T22:49:24.477Z,97.83
2023-01-13T22:51:27.170Z,98.05
2023-01-13T22:53:28.622Z,97.70
2023-01-13T22:55:30.050Z,98.31
2023-01-13T22:57:46.470Z,98.01
2023-01-13T22:59:48.595Z,98.10
2023-01-13T23:01:50.115Z,97.88
2023-01-13T23:03:51.666Z,97.55
2023-01-13T23:05:57.244Z,97.30
2023-01-13T23:07:58.709Z,97.28
2023-01-13T23:10:00.166Z,97.51
2023-01-13T23:12:01.626Z,97.24
2023-01-13T23:14:05.447Z,96.99
2023-01-13T23:16:10.824Z,97.19
2023-01-13T23:18:12.319Z,97.26
2023-01-13T23:20:13.772Z,97.21
2023-01-13T23:22:15.609Z,96.63
2023-01-13T23:24:17.146Z,96.98
2023-01-13T23:26:19.472Z,96.82
2023-01-13T23:28:22.184Z,96.83
2023-01-13T23:30:23.656Z,97.14
2023-01-13T23:32:25.133Z,96.60
2023-01-13T23:34:26.658Z,96.90
2023-01-13T23:36:28.833Z,97.13
2023-01-13T23:38:30.469Z,96.83
2023-01-13T23:40:33.985Z,96.24
2023-01-13T23:42:36.008Z,96.48
2023-01-13T23:44:37.485Z,96.37
2023-01-13T23:46:39.221Z,96.09
2023-01-13T23:48:40.698Z,96.41
2023-01-13T23:50:42.244Z,96.29
2023-01-13T23:52:44.036Z,96.17
2023-01-13T23:54:45.526Z,96.48
2023-01-13T23:56:49.560Z,96.50
2023-01-13T23:58:51.521Z,96.53
